Time;durP1;ratioP1;P1;durP2;ratioP2;P2;SDS_P1;SDS_P2;PMS_P1;PMS_P2;Temp;Humidity;BMP_temperature;BMP_pressure;BME280_temperature;BME280_humidity;BME280_pressure;Samples;Min_cycle;Max_cycle;Signal;HPM_P1;HPM_P2
2023/04/27 00:00:59;;;;;;;2.47;1.08;;;;;;;;;;5281702;28;20012;-72
2023/04/27 00:03:31;;;;;;;3.03;1.10;;;;;;;;;;5280996;28;20103;-73
2023/04/27 00:06:02;;;;;;;3.85;1.48;;;;;;;;;;5281510;28;20135;-72
2023/04/27 00:08:34;;;;;;;3.80;0.98;;;;;;;;;;5281790;28;20021;-72
2023/04/27 00:11:05;;;;;;;5.22;1.55;;;;;;;;;;5280697;28;20025;-72
2023/04/27 00:13:36;;;;;;;4.65;1.52;;;;;;;;;;5281460;28;20028;-72
2023/04/27 00:16:07;;;;;;;3.10;1.20;;;;;;;;;;5281488;28;20426;-71
2023/04/27 00:18:38;;;;;;;5.56;1.48;;;;;;;;;;5280180;28;20029;-72
2023/04/27 00:21:10;;;;;;;3.38;1.42;;;;;;;;;;5281895;28;20020;-72
2023/04/27 00:23:41;;;;;;;3.22;1.60;;;;;;;;;;5281167;28;20016;-72
2023/04/27 00:26:12;;;;;;;3.03;1.60;;;;;;;;;;5280659;28;20049;-72
2023/04/27 00:28:43;;;;;;;2.35;1.20;;;;;;;;;;5280973;28;20038;-72
2023/04/27 00:31:15;;;;;;;3.02;1.40;;;;;;;;;;5280867;28;20021;-72
2023/04/27 00:33:46;;;;;;;4.47;1.90;;;;;;;;;;5281299;28;20024;-72
2023/04/27 00:36:17;;;;;;;3.10;1.52;;;;;;;;;;5281515;28;20117;-72
2023/04/27 00:38:48;;;;;;;5.70;2.18;;;;;;;;;;5279719;28;20285;-72
2023/04/27 00:41:19;;;;;;;7.50;1.90;;;;;;;;;;5281692;28;20013;-72
2023/04/27 00:43:50;;;;;;;6.00;1.52;;;;;;;;;;5280930;28;20074;-72
2023/04/27 00:46:22;;;;;;;3.92;1.92;;;;;;;;;;5281043;28;20078;-72
2023/04/27 00:48:54;;;;;;;3.63;1.55;;;;;;;;;;5281085;28;20039;-72
2023/04/27 00:51:27;;;;;;;5.03;1.40;;;;;;;;;;5281898;28;20027;-71
2023/04/27 00:53:59;;;;;;;4.50;1.35;;;;;;;;;;5280019;28;20013;-72
2023/04/27 00:56:30;;;;;;;5.13;1.98;;;;;;;;;;5281017;28;20019;-72
2023/04/27 00:59:02;;;;;;;5.00;1.67;;;;;;;;;;5280451;28;20464;-72
2023/04/27 01:01:33;;;;;;;5.55;2.00;;;;;;;;;;5281048;28;20063;-73
2023/04/27 01:04:04;;;;;;;3.22;1.38;;;;;;;;;;5280933;28;20032;-72
2023/04/27 01:06:35;;;;;;;3.96;1.28;;;;;;;;;;5280123;28;20095;-72
2023/04/27 01:09:08;;;;;;;3.02;1.30;;;;;;;;;;5281075;28;20035;-72
2023/04/27 01:11:39;;;;;;;3.13;1.77;;;;;;;;;;5280655;28;20091;-72
2023/04/27 01:14:10;;;;;;;4.10;2.00;;;;;;;;;;5280500;28;20124;-72
2023/04/27 01:16:41;;;;;;;9.18;4.13;;;;;;;;;;5280643;28;20080;-72
2023/04/27 01:19:12;;;;;;;5.80;1.60;;;;;;;;;;5281112;28;20042;-72
2023/04/27 01:21:44;;;;;;;3.70;1.73;;;;;;;;;;5279965;28;20021;-72
2023/04/27 01:24:15;;;;;;;3.58;1.70;;;;;;;;;;5281642;28;20023;-72
2023/04/27 01:26:46;;;;;;;4.00;1.50;;;;;;;;;;5280783;28;20052;-72
2023/04/27 01:29:18;;;;;;;3.17;1.30;;;;;;;;;;5280505;28;20032;-72
2023/04/27 01:31:49;;;;;;;4.38;1.60;;;;;;;;;;5280402;28;20021;-72
2023/04/27 01:34:20;;;;;;;3.45;1.40;;;;;;;;;;5280394;28;20017;-72
2023/04/27 01:36:51;;;;;;;4.53;1.75;;;;;;;;;;5280253;28;20020;-72
2023/04/27 01:39:22;;;;;;;4.80;1.70;;;;;;;;;;5281380;28;20020;-72
2023/04/27 01:41:54;;;;;;;4.13;2.00;;;;;;;;;;5279710;28;20024;-72
2023/04/27 01:44:25;;;;;;;4.03;2.33;;;;;;;;;;5281058;28;20329;-72
2023/04/27 01:46:56;;;;;;;4.40;2.00;;;;;;;;;;5280191;28;20538;-72
2023/04/27 01:49:27;;;;;;;3.47;2.45;;;;;;;;;;5282615;28;20065;-72
2023/04/27 01:51:59;;;;;;;3.58;2.03;;;;;;;;;;5283891;28;20087;-72
2023/04/27 01:54:30;;;;;;;3.85;2.08;;;;;;;;;;5284177;28;20039;-72
2023/04/27 01:57:01;;;;;;;3.35;1.98;;;;;;;;;;5283574;28;20016;-72
2023/04/27 01:59:32;;;;;;;3.42;2.20;;;;;;;;;;5284348;28;20030;-72
2023/04/27 02:02:04;;;;;;;4.47;2.15;;;;;;;;;;5284114;28;20031;-72
2023/04/27 02:04:35;;;;;;;6.20;2.80;;;;;;;;;;5283516;28;20028;-72
2023/04/27 02:07:06;;;;;;;3.95;2.15;;;;;;;;;;5284217;28;20031;-73
2023/04/27 02:09:37;;;;;;;4.53;1.80;;;;;;;;;;5283195;28;20020;-72
2023/04/27 02:12:08;;;;;;;5.53;2.35;;;;;;;;;;5284485;28;20017;-72
2023/04/27 02:14:40;;;;;;;3.20;2.15;;;;;;;;;;5283855;28;20082;-72
2023/04/27 02:17:11;;;;;;;4.85;2.83;;;;;;;;;;5283487;28;20025;-72
2023/04/27 02:19:42;;;;;;;4.50;2.20;;;;;;;;;;5283896;28;20029;-71
2023/04/27 02:22:13;;;;;;;4.34;1.92;;;;;;;;;;5283896;28;20020;-71
2023/04/27 02:24:45;;;;;;;3.75;2.42;;;;;;;;;;5282583;28;20025;-72
2023/04/27 02:27:16;;;;;;;4.25;2.08;;;;;;;;;;5283608;28;20402;-72
2023/04/27 02:29:47;;;;;;;5.55;2.72;;;;;;;;;;5283090;28;20029;-72
2023/04/27 02:32:21;;;;;;;9.85;2.65;;;;;;;;;;5283172;28;20539;-72
2023/04/27 02:34:52;;;;;;;6.15;2.88;;;;;;;;;;5283229;28;20085;-72
2023/04/27 02:37:23;;;;;;;5.47;2.17;;;;;;;;;;5283633;28;20032;-71
2023/04/27 02:39:54;;;;;;;6.53;2.30;;;;;;;;;;5282219;28;20062;-71
2023/04/27 02:42:25;;;;;;;4.50;2.17;;;;;;;;;;5283561;28;20027;-71
2023/04/27 02:44:57;;;;;;;5.22;2.63;;;;;;;;;;5282372;28;20086;-72
2023/04/27 02:47:28;;;;;;;5.10;2.45;;;;;;;;;;5283521;28;20020;-71
2023/04/27 02:49:59;;;;;;;4.75;2.47;;;;;;;;;;5282925;28;20081;-72
2023/04/27 02:52:31;;;;;;;3.80;2.45;;;;;;;;;;5282366;28;20095;-71
2023/04/27 02:55:02;;;;;;;5.93;2.75;;;;;;;;;;5282972;28;20046;-71
2023/04/27 02:57:33;;;;;;;5.18;2.80;;;;;;;;;;5282857;28;20024;-72
2023/04/27 03:00:05;;;;;;;6.43;2.53;;;;;;;;;;5281256;28;20062;-72
2023/04/27 03:02:36;;;;;;;5.00;2.45;;;;;;;;;;5283067;28;20050;-72
2023/04/27 03:05:08;;;;;;;5.47;3.00;;;;;;;;;;5282883;28;20095;-71
2023/04/27 03:07:39;;;;;;;5.30;2.80;;;;;;;;;;5281709;28;20094;-71
2023/04/27 03:10:11;;;;;;;6.15;2.72;;;;;;;;;;5283440;28;20391;-72
2023/04/27 03:12:42;;;;;;;4.43;2.58;;;;;;;;;;5281700;28;20012;-71
2023/04/27 03:15:13;;;;;;;6.80;2.55;;;;;;;;;;5282969;28;20016;-72
2023/04/27 03:17:44;;;;;;;6.63;3.00;;;;;;;;;;5282114;28;20045;-71
2023/04/27 03:20:16;;;;;;;3.85;2.63;;;;;;;;;;5282349;28;20040;-73
2023/04/27 03:22:47;;;;;;;5.82;2.65;;;;;;;;;;5282304;28;20086;-71
2023/04/27 03:25:18;;;;;;;5.20;3.03;;;;;;;;;;5282693;28;20039;-73
2023/04/27 03:27:50;;;;;;;3.85;2.17;;;;;;;;;;5281639;28;20035;-73
2023/04/27 03:30:21;;;;;;;4.88;2.63;;;;;;;;;;5282918;28;20024;-72
2023/04/27 03:32:53;;;;;;;3.47;2.25;;;;;;;;;;5282535;28;20501;-72
2023/04/27 03:35:25;;;;;;;3.45;2.30;;;;;;;;;;5282333;28;20020;-72
2023/04/27 03:37:56;;;;;;;4.80;3.08;;;;;;;;;;5281720;28;20086;-71
2023/04/27 03:40:27;;;;;;;5.63;3.00;;;;;;;;;;5282305;28;20108;-71
2023/04/27 03:42:58;;;;;;;3.94;2.50;;;;;;;;;;5280845;28;20478;-71
2023/04/27 03:45:30;;;;;;;8.20;3.66;;;;;;;;;;5282051;28;20474;-72
2023/04/27 03:48:01;;;;;;;4.43;2.95;;;;;;;;;;5281227;28;20417;-71
2023/04/27 03:50:32;;;;;;;6.72;3.26;;;;;;;;;;5281988;28;20028;-71
2023/04/27 03:53:03;;;;;;;4.82;2.85;;;;;;;;;;5281981;28;20025;-72
2023/04/27 03:55:38;;;;;;;4.32;2.90;;;;;;;;;;5281012;28;20456;-72
2023/04/27 03:58:10;;;;;;;5.55;2.92;;;;;;;;;;5282113;28;20024;-71
2023/04/27 04:00:41;;;;;;;3.95;2.65;;;;;;;;;;5281554;28;20047;-72
2023/04/27 04:03:12;;;;;;;4.47;2.72;;;;;;;;;;5281258;28;20059;-72
2023/04/27 04:05:45;;;;;;;4.00;2.42;;;;;;;;;;5281395;28;20028;-72
2023/04/27 04:08:17;;;;;;;5.78;3.20;;;;;;;;;;5282281;28;20121;-72
2023/04/27 04:10:48;;;;;;;4.53;3.53;;;;;;;;;;5280259;28;20629;-72
2023/04/27 04:13:19;;;;;;;6.30;3.53;;;;;;;;;;5281669;28;20103;-73
2023/04/27 04:15:59;;;;;;;6.32;3.75;;;;;;;;;;5280937;28;20016;-72
2023/04/27 04:18:30;;;;;;;4.80;3.30;;;;;;;;;;5281273;28;20043;-72
2023/04/27 04:21:02;;;;;;;4.45;3.50;;;;;;;;;;5281631;28;20099;-72
2023/04/27 04:23:33;;;;;;;5.65;4.05;;;;;;;;;;5280734;28;20058;-72
2023/04/27 04:26:04;;;;;;;7.60;4.07;;;;;;;;;;5281225;28;20048;-72
2023/04/27 04:28:36;;;;;;;4.13;2.70;;;;;;;;;;5281337;28;20036;-72
2023/04/27 04:31:08;;;;;;;4.75;3.10;;;;;;;;;;5280648;28;20359;-72
2023/04/27 04:33:39;;;;;;;5.78;3.67;;;;;;;;;;5281020;28;20031;-72
2023/04/27 04:36:10;;;;;;;4.88;3.03;;;;;;;;;;5281505;28;20021;-72
2023/04/27 04:38:42;;;;;;;8.30;3.92;;;;;;;;;;5280047;28;20471;-72
2023/04/27 04:41:13;;;;;;;5.93;3.17;;;;;;;;;;5281496;28;20083;-72
2023/04/27 04:43:44;;;;;;;4.57;3.00;;;;;;;;;;5281138;28;20104;-72
2023/04/27 04:46:16;;;;;;;4.07;3.00;;;;;;;;;;5280933;28;20047;-72
2023/04/27 04:48:47;;;;;;;6.65;3.00;;;;;;;;;;5281111;28;20051;-72
2023/04/27 04:51:18;;;;;;;5.78;3.33;;;;;;;;;;5280964;28;20379;-72
2023/04/27 04:53:49;;;;;;;6.66;4.08;;;;;;;;;;5281048;28;20103;-72
2023/04/27 04:56:20;;;;;;;6.25;3.63;;;;;;;;;;5281642;28;20052;-72
2023/04/27 04:58:52;;;;;;;4.90;2.95;;;;;;;;;;5280398;28;20484;-72
2023/04/27 05:01:23;;;;;;;6.04;4.18;;;;;;;;;;5281554;28;20031;-72
2023/04/27 05:03:54;;;;;;;4.03;3.28;;;;;;;;;;5280784;28;20049;-72
2023/04/27 05:06:25;;;;;;;4.18;3.05;;;;;;;;;;5280550;28;20028;-73
2023/04/27 05:08:57;;;;;;;5.22;3.25;;;;;;;;;;5280604;28;20029;-72
2023/04/27 05:11:28;;;;;;;5.88;3.42;;;;;;;;;;5281244;28;20042;-72
2023/04/27 05:13:59;;;;;;;3.82;2.54;;;;;;;;;;5279813;28;20024;-72
2023/04/27 05:16:30;;;;;;;4.93;3.08;;;;;;;;;;5280844;28;20021;-72
2023/04/27 05:19:02;;;;;;;4.88;3.83;;;;;;;;;;5280812;28;20036;-72
2023/04/27 05:21:33;;;;;;;6.03;3.35;;;;;;;;;;5280177;28;20021;-72
2023/04/27 05:24:04;;;;;;;8.45;3.42;;;;;;;;;;5282778;28;20020;-72
2023/04/27 05:26:35;;;;;;;5.75;3.88;;;;;;;;;;5283684;28;20052;-72
2023/04/27 05:29:06;;;;;;;7.55;4.90;;;;;;;;;;5284625;28;20800;-72
2023/04/27 05:31:38;;;;;;;5.65;3.65;;;;;;;;;;5284634;28;20120;-72
2023/04/27 05:34:09;;;;;;;5.65;3.50;;;;;;;;;;5283913;28;20009;-72
2023/04/27 05:36:40;;;;;;;5.35;3.70;;;;;;;;;;5284107;28;20036;-72
2023/04/27 05:39:12;;;;;;;5.30;3.47;;;;;;;;;;5284683;28;20391;-72
2023/04/27 05:41:43;;;;;;;5.05;3.05;;;;;;;;;;5283375;28;20013;-71
2023/04/27 05:44:15;;;;;;;5.74;3.34;;;;;;;;;;5284477;28;20498;-72
2023/04/27 05:46:46;;;;;;;4.50;3.60;;;;;;;;;;5283976;28;20486;-72
2023/04/27 05:49:17;;;;;;;6.40;3.25;;;;;;;;;;5283871;28;20071;-72
2023/04/27 05:51:48;;;;;;;5.13;3.50;;;;;;;;;;5283798;28;20377;-71
2023/04/27 05:54:19;;;;;;;4.07;3.15;;;;;;;;;;5284524;28;20020;-72
2023/04/27 05:56:51;;;;;;;5.18;3.08;;;;;;;;;;5283216;28;20024;-71
2023/04/27 05:59:22;;;;;;;5.20;3.35;;;;;;;;;;5284475;28;20016;-72
2023/04/27 06:01:53;;;;;;;5.13;2.78;;;;;;;;;;5282899;28;20199;-72
2023/04/27 06:04:24;;;;;;;5.44;2.96;;;;;;;;;;5284119;28;20084;-72
2023/04/27 06:06:56;;;;;;;5.22;2.88;;;;;;;;;;5283881;28;20019;-72
2023/04/27 06:09:29;;;;;;;5.82;3.35;;;;;;;;;;5283868;28;20021;-72
2023/04/27 06:12:00;;;;;;;5.72;2.90;;;;;;;;;;5283740;28;20483;-72
2023/04/27 06:14:32;;;;;;;8.63;3.13;;;;;;;;;;5283533;28;20028;-72
2023/04/27 06:17:03;;;;;;;5.00;2.95;;;;;;;;;;5282727;28;20019;-72
2023/04/27 06:19:35;;;;;;;6.32;2.55;;;;;;;;;;5284064;28;20020;-72
2023/04/27 06:22:06;;;;;;;5.78;2.95;;;;;;;;;;5283960;28;20024;-71
2023/04/27 06:24:37;;;;;;;6.43;2.90;;;;;;;;;;5282826;28;20099;-72
2023/04/27 06:27:09;;;;;;;6.03;2.85;;;;;;;;;;5283634;28;20045;-72
2023/04/27 06:29:40;;;;;;;5.45;2.78;;;;;;;;;;5282409;28;20154;-72
2023/04/27 06:32:11;;;;;;;7.30;2.97;;;;;;;;;;5283677;28;20051;-72
2023/04/27 06:34:42;;;;;;;4.05;2.90;;;;;;;;;;5282279;28;20024;-72
2023/04/27 06:37:15;;;;;;;6.72;2.25;;;;;;;;;;5283022;28;20024;-72
2023/04/27 06:39:47;;;;;;;4.68;2.65;;;;;;;;;;5282973;28;20035;-72
2023/04/27 06:42:18;;;;;;;5.78;2.70;;;;;;;;;;5283518;28;20020;-72
2023/04/27 06:44:52;;;;;;;4.45;2.33;;;;;;;;;;5282195;28;20024;-71
2023/04/27 06:47:23;;;;;;;5.03;2.45;;;;;;;;;;5283481;28;20096;-72
2023/04/27 06:49:54;;;;;;;3.80;2.38;;;;;;;;;;5282853;28;20162;-72
2023/04/27 06:52:26;;;;;;;7.63;3.10;;;;;;;;;;5282520;28;20017;-72
2023/04/27 06:54:57;;;;;;;7.25;3.10;;;;;;;;;;5282738;28;20036;-71
2023/04/27 06:57:28;;;;;;;7.43;2.53;;;;;;;;;;5283331;28;20024;-73
2023/04/27 06:59:59;;;;;;;4.86;2.38;;;;;;;;;;5281839;28;20021;-72
2023/04/27 07:02:30;;;;;;;5.50;2.75;;;;;;;;;;5282921;28;20024;-72
2023/04/27 07:05:05;;;;;;;7.15;3.25;;;;;;;;;;5282037;28;20458;-73
2023/04/27 07:07:36;;;;;;;4.43;2.55;;;;;;;;;;5282888;28;20407;-72
2023/04/27 07:10:08;;;;;;;6.32;2.67;;;;;;;;;;5282635;28;20031;-73
2023/04/27 07:12:39;;;;;;;5.05;3.00;;;;;;;;;;5281484;28;20316;-73
2023/04/27 07:15:10;;;;;;;6.40;3.53;;;;;;;;;;5282544;28;20024;-73
2023/04/27 07:17:42;;;;;;;7.40;3.65;;;;;;;;;;5282040;28;20539;-72
2023/04/27 07:20:13;;;;;;;6.15;3.75;;;;;;;;;;5282140;28;20047;-73
2023/04/27 07:22:44;;;;;;;6.30;2.97;;;;;;;;;;5282273;28;20052;-73
2023/04/27 07:25:15;;;;;;;4.70;2.80;;;;;;;;;;5282237;28;20044;-73
2023/04/27 07:27:47;;;;;;;8.98;3.40;;;;;;;;;;5281273;28;20471;-73
2023/04/27 07:30:18;;;;;;;6.65;3.20;;;;;;;;;;5283012;28;20025;-73
2023/04/27 07:32:53;;;;;;;5.43;3.42;;;;;;;;;;5281519;28;20086;-73
2023/04/27 07:35:24;;;;;;;7.32;3.22;;;;;;;;;;5282397;28;20082;-74
2023/04/27 07:37:55;;;;;;;8.18;3.00;;;;;;;;;;5281792;28;20032;-74
2023/04/27 07:40:27;;;;;;;8.65;4.00;;;;;;;;;;5281634;28;20119;-73
2023/04/27 07:42:58;;;;;;;4.53;2.75;;;;;;;;;;5281900;28;20055;-74
2023/04/27 07:45:32;;;;;;;6.78;3.00;;;;;;;;;;5281960;28;20479;-73
2023/04/27 07:48:04;;;;;;;5.07;3.08;;;;;;;;;;5280955;28;20418;-73
2023/04/27 07:50:35;;;;;;;7.53;3.22;;;;;;;;;;5281833;28;20040;-73
2023/04/27 07:53:06;;;;;;;7.07;4.00;;;;;;;;;;5277519;28;20029;-72
2023/04/27 07:55:37;;;;;;;7.90;3.40;;;;;;;;;;5280291;28;20027;-74
2023/04/27 07:58:09;;;;;;;6.07;3.28;;;;;;;;;;5281450;28;20481;-72
2023/04/27 08:00:40;;;;;;;4.22;2.60;;;;;;;;;;5280931;28;20027;-72
2023/04/27 08:03:11;;;;;;;7.72;2.90;;;;;;;;;;5281163;28;20526;-72
2023/04/27 08:05:43;;;;;;;7.55;3.13;;;;;;;;;;5280161;28;20096;-72
2023/04/27 08:08:14;;;;;;;4.88;2.60;;;;;;;;;;5280826;28;20259;-72
2023/04/27 08:10:45;;;;;;;6.68;2.78;;;;;;;;;;5281004;28;20008;-72
2023/04/27 08:13:16;;;;;;;7.63;2.60;;;;;;;;;;5281623;28;20020;-73
2023/04/27 08:15:48;;;;;;;4.20;2.05;;;;;;;;;;5279983;28;20023;-73
2023/04/27 08:18:20;;;;;;;4.20;1.88;;;;;;;;;;5281732;28;20086;-73
2023/04/27 08:20:51;;;;;;;4.55;1.80;;;;;;;;;;5281009;28;20020;-72
2023/04/27 08:23:26;;;;;;;4.25;1.67;;;;;;;;;;5280904;28;20023;-72
2023/04/27 08:25:57;;;;;;;5.00;1.33;;;;;;;;;;5280983;28;20056;-72
2023/04/27 08:28:29;;;;;;;3.47;0.93;;;;;;;;;;5281513;28;20025;-72
2023/04/27 08:31:00;;;;;;;4.80;1.40;;;;;;;;;;5280538;28;20096;-70
2023/04/27 08:33:31;;;;;;;3.55;2.08;;;;;;;;;;5281305;28;20184;-73
2023/04/27 08:36:03;;;;;;;4.68;1.75;;;;;;;;;;5281399;28;20023;-70
2023/04/27 08:38:34;;;;;;;4.13;1.98;;;;;;;;;;5280338;28;20025;-73
2023/04/27 08:41:05;;;;;;;5.63;1.48;;;;;;;;;;5281368;28;20016;-73
2023/04/27 08:43:37;;;;;;;2.83;1.15;;;;;;;;;;5280697;28;20031;-73
2023/04/27 08:46:08;;;;;;;5.25;1.60;;;;;;;;;;5281376;28;20020;-73
2023/04/27 08:48:39;;;;;;;2.37;1.30;;;;;;;;;;5281175;28;20071;-72
2023/04/27 08:51:13;;;;;;;5.13;1.63;;;;;;;;;;5281082;28;20274;-72
2023/04/27 08:53:46;;;;;;;3.92;0.90;;;;;;;;;;5280953;28;20270;-72
2023/04/27 08:56:18;;;;;;;3.97;1.30;;;;;;;;;;5281485;28;20017;-72
2023/04/27 08:58:49;;;;;;;5.75;1.45;;;;;;;;;;5281958;28;20028;-72
2023/04/27 09:01:22;;;;;;;4.18;0.93;;;;;;;;;;5285378;28;20016;-73
2023/04/27 09:03:57;;;;;;;2.47;0.95;;;;;;;;;;5284596;28;20027;-72
2023/04/27 09:06:30;;;;;;;2.70;0.70;;;;;;;;;;5282624;28;20024;-73
2023/04/27 09:09:02;;;;;;;3.35;1.05;;;;;;;;;;5283272;28;20067;-73
2023/04/27 09:11:34;;;;;;;3.70;0.93;;;;;;;;;;5282205;28;20048;-74
2023/04/27 09:14:16;;;;;;;3.10;1.00;;;;;;;;;;5282771;28;20032;-73
2023/04/27 09:16:58;;;;;;;1.65;0.70;;;;;;;;;;5282642;28;20413;-73
2023/04/27 09:19:29;;;;;;;4.03;0.93;;;;;;;;;;5282360;28;20036;-73
2023/04/27 09:22:03;;;;;;;3.83;1.00;;;;;;;;;;5284626;28;20095;-73
2023/04/27 09:24:35;;;;;;;2.35;0.93;;;;;;;;;;5284525;28;20424;-73
2023/04/27 09:27:07;;;;;;;2.88;0.90;;;;;;;;;;5283716;28;20056;-73
2023/04/27 09:29:38;;;;;;;2.50;0.80;;;;;;;;;;5284203;28;20493;-73
2023/04/27 09:32:13;;;;;;;2.95;0.70;;;;;;;;;;5284538;28;20021;-73
2023/04/27 09:34:45;;;;;;;2.72;0.90;;;;;;;;;;5283206;28;20025;-71
2023/04/27 09:37:17;;;;;;;2.92;0.80;;;;;;;;;;5284700;28;20012;-72
2023/04/27 09:39:48;;;;;;;1.70;0.70;;;;;;;;;;5283799;28;20352;-73
2023/04/27 09:42:20;;;;;;;2.72;0.70;;;;;;;;;;5284990;28;20095;-71
2023/04/27 09:44:52;;;;;;;4.85;0.82;;;;;;;;;;5284174;28;20027;-72
2023/04/27 09:47:23;;;;;;;2.80;1.02;;;;;;;;;;5283715;28;20095;-72
2023/04/27 09:49:55;;;;;;;3.15;0.90;;;;;;;;;;5283987;28;20095;-72
2023/04/27 09:52:26;;;;;;;4.65;0.93;;;;;;;;;;5284221;28;20029;-71
2023/04/27 09:54:57;;;;;;;3.10;0.90;;;;;;;;;;5283038;28;20074;-71
2023/04/27 09:57:36;;;;;;;3.92;0.85;;;;;;;;;;5284105;28;20282;-71
2023/04/27 10:00:11;;;;;;;2.67;1.05;;;;;;;;;;5283676;28;20020;-71
2023/04/27 10:03:11;;;;;;;5.03;1.10;;;;;;;;;;5282875;28;20054;-72
2023/04/27 10:05:48;;;;;;;3.22;1.23;;;;;;;;;;5261685;28;20545;-72
2023/04/27 10:08:20;;;;;;;3.35;0.93;;;;;;;;;;5283062;28;20028;-72
2023/04/27 10:10:52;;;;;;;5.28;1.15;;;;;;;;;;5283198;28;20382;-71
2023/04/27 10:13:23;;;;;;;5.68;1.10;;;;;;;;;;5283529;28;20020;-72
2023/04/27 10:15:55;;;;;;;5.43;1.20;;;;;;;;;;5280957;28;20097;-71
2023/04/27 10:18:28;;;;;;;3.60;1.25;;;;;;;;;;5281702;28;20020;-72
2023/04/27 10:21:08;;;;;;;4.30;1.52;;;;;;;;;;5281385;28;20376;-72
2023/04/27 10:23:47;;;;;;;6.55;1.45;;;;;;;;;;5280538;28;20039;-72
2023/04/27 10:26:25;;;;;;;1.60;0.80;;;;;;;;;;5281896;28;20421;-71
2023/04/27 10:29:06;;;;;;;2.72;1.20;;;;;;;;;;5280574;28;20426;-71
2023/04/27 10:31:42;;;;;;;3.05;1.17;;;;;;;;;;5281678;28;20066;-71
2023/04/27 10:34:17;;;;;;;3.75;1.25;;;;;;;;;;5281336;28;20418;-71
2023/04/27 10:36:48;;;;;;;2.78;1.52;;;;;;;;;;5279771;28;20028;-71
2023/04/27 10:39:21;;;;;;;2.92;2.08;;;;;;;;;;5281019;28;20403;-72
2023/04/27 10:41:53;;;;;;;3.00;1.40;;;;;;;;;;5280517;28;20023;-71
2023/04/27 10:44:27;;;;;;;3.03;1.65;;;;;;;;;;5280556;28;20024;-71
2023/04/27 10:47:11;;;;;;;4.70;2.08;;;;;;;;;;5280625;28;20095;-72
2023/04/27 10:49:42;;;;;;;4.15;1.35;;;;;;;;;;5282604;28;20447;-72
2023/04/27 10:52:13;;;;;;;3.00;1.10;;;;;;;;;;5282827;28;20095;-72
2023/04/27 10:54:45;;;;;;;4.30;1.33;;;;;;;;;;5282455;28;20023;-72
2023/04/27 10:57:16;;;;;;;3.13;1.50;;;;;;;;;;5282268;28;20269;-71
2023/04/27 10:59:52;;;;;;;4.13;1.60;;;;;;;;;;5282339;28;20033;-71
2023/04/27 11:02:27;;;;;;;4.35;1.48;;;;;;;;;;5282816;28;20513;-71
2023/04/27 11:04:58;;;;;;;3.83;1.35;;;;;;;;;;5281670;28;20035;-71
2023/04/27 11:07:29;;;;;;;2.65;1.63;;;;;;;;;;5282595;28;20017;-72
2023/04/27 11:10:00;;;;;;;4.18;1.70;;;;;;;;;;5282564;28;20046;-71
2023/04/27 11:12:31;;;;;;;4.77;1.70;;;;;;;;;;5281638;28;20320;-71
2023/04/27 11:15:03;;;;;;;3.78;1.70;;;;;;;;;;5282220;28;20364;-71
2023/04/27 11:17:34;;;;;;;6.32;2.13;;;;;;;;;;5282367;28;20013;-71
2023/04/27 11:20:08;;;;;;;4.30;1.83;;;;;;;;;;5281445;28;20024;-71
2023/04/27 11:22:44;;;;;;;4.18;2.03;;;;;;;;;;5281329;28;20012;-72
2023/04/27 11:25:15;;;;;;;4.78;1.50;;;;;;;;;;5281434;28;20366;-71
2023/04/27 11:27:47;;;;;;;3.40;1.52;;;;;;;;;;5282186;28;20013;-72
2023/04/27 11:30:21;;;;;;;2.53;1.33;;;;;;;;;;5281759;28;20020;-72
2023/04/27 11:32:52;;;;;;;5.30;1.90;;;;;;;;;;5280157;28;20353;-72
2023/04/27 11:35:33;;;;;;;4.50;1.80;;;;;;;;;;5281728;28;20096;-72
2023/04/27 11:38:04;;;;;;;4.22;1.33;;;;;;;;;;5281787;28;20649;-73
2023/04/27 11:40:39;;;;;;;4.05;1.88;;;;;;;;;;5281111;28;20013;-73
2023/04/27 11:43:14;;;;;;;4.70;1.63;;;;;;;;;;5282039;28;20032;-73
2023/04/27 11:45:46;;;;;;;3.35;1.77;;;;;;;;;;5281436;28;20066;-73
2023/04/27 11:48:17;;;;;;;6.40;1.85;;;;;;;;;;5281182;28;20020;-73
2023/04/27 11:50:49;;;;;;;3.63;1.97;;;;;;;;;;5281482;28;20021;-73
2023/04/27 11:53:41;;;;;;;3.75;1.80;;;;;;;;;;5281371;28;20267;-72
2023/04/27 11:56:13;;;;;;;3.72;1.95;;;;;;;;;;5280908;28;20096;-73
2023/04/27 11:58:44;;;;;;;3.73;1.50;;;;;;;;;;5281097;28;20119;-74
2023/04/27 12:01:15;;;;;;;3.08;1.95;;;;;;;;;;5281185;28;20266;-72
2023/04/27 12:03:46;;;;;;;5.55;1.80;;;;;;;;;;5281335;28;20025;-72
2023/04/27 12:06:22;;;;;;;3.17;1.90;;;;;;;;;;5281972;28;20263;-73
2023/04/27 12:08:57;;;;;;;4.32;1.30;;;;;;;;;;5280554;28;20345;-72
2023/04/27 12:11:28;;;;;;;3.92;1.30;;;;;;;;;;5281647;28;20402;-72
2023/04/27 12:13:59;;;;;;;5.82;1.58;;;;;;;;;;5280863;28;20023;-71
2023/04/27 12:16:31;;;;;;;3.45;1.65;;;;;;;;;;5280629;28;20347;-73
2023/04/27 12:19:02;;;;;;;4.57;1.77;;;;;;;;;;5281556;28;20111;-73
2023/04/27 12:21:33;;;;;;;3.65;1.80;;;;;;;;;;5280150;28;20020;-73
2023/04/27 12:24:05;;;;;;;2.38;1.45;;;;;;;;;;5280250;28;20028;-72
2023/04/27 12:26:36;;;;;;;4.65;2.05;;;;;;;;;;5280821;28;20492;-72
2023/04/27 12:29:07;;;;;;;4.47;2.17;;;;;;;;;;5280531;28;20033;-72
2023/04/27 12:31:38;;;;;;;3.03;1.25;;;;;;;;;;5280606;28;20281;-73
2023/04/27 12:34:09;;;;;;;2.08;1.33;;;;;;;;;;5281304;28;20016;-75
2023/04/27 12:36:41;;;;;;;4.53;1.73;;;;;;;;;;5280110;28;20100;-72
2023/04/27 12:39:16;;;;;;;3.80;1.75;;;;;;;;;;5281289;28;20298;-72
2023/04/27 12:41:48;;;;;;;3.17;1.42;;;;;;;;;;5280725;28;20024;-72
2023/04/27 12:44:20;;;;;;;4.32;1.55;;;;;;;;;;5280525;28;20381;-72
2023/04/27 12:46:51;;;;;;;5.18;1.35;;;;;;;;;;5280860;28;20070;-72
2023/04/27 12:49:22;;;;;;;4.00;1.92;;;;;;;;;;5280732;28;20017;-73
2023/04/27 12:51:55;;;;;;;4.15;1.42;;;;;;;;;;5280693;28;20044;-69
2023/04/27 12:54:27;;;;;;;5.90;1.77;;;;;;;;;;5281554;28;20074;-72
2023/04/27 12:57:01;;;;;;;3.33;1.70;;;;;;;;;;5277147;28;20020;-72
2023/04/27 12:59:33;;;;;;;4.78;1.63;;;;;;;;;;5281052;28;20029;-72
2023/04/27 13:02:05;;;;;;;5.20;1.83;;;;;;;;;;5280527;28;20031;-71
2023/04/27 13:04:36;;;;;;;5.13;1.90;;;;;;;;;;5279939;28;20123;-72
2023/04/27 13:07:07;;;;;;;4.17;2.27;;;;;;;;;;5280512;28;20056;-72
2023/04/27 13:09:39;;;;;;;4.72;2.22;;;;;;;;;;5279990;28;20246;-72
2023/04/27 13:12:10;;;;;;;2.72;1.83;;;;;;;;;;5279487;28;20016;-72
2023/04/27 13:14:42;;;;;;;4.30;2.07;;;;;;;;;;5280211;28;20070;-72
2023/04/27 13:17:13;;;;;;;3.60;1.60;;;;;;;;;;5280737;28;20266;-71
2023/04/27 13:19:44;;;;;;;3.20;1.57;;;;;;;;;;5279541;28;20021;-72
2023/04/27 13:22:15;;;;;;;7.03;1.83;;;;;;;;;;5279738;28;20310;-71
2023/04/27 13:24:46;;;;;;;4.13;1.73;;;;;;;;;;5279098;28;20757;-71
2023/04/27 13:27:21;;;;;;;3.77;1.77;;;;;;;;;;5279351;28;20310;-71
2023/04/27 13:29:52;;;;;;;5.63;2.15;;;;;;;;;;5279964;28;20271;-72
2023/04/27 13:32:23;;;;;;;4.73;1.80;;;;;;;;;;5279645;28;20024;-72
2023/04/27 13:34:54;;;;;;;3.33;2.17;;;;;;;;;;5280113;28;20269;-73
2023/04/27 13:37:26;;;;;;;3.60;1.60;;;;;;;;;;5280630;28;20016;-72
2023/04/27 13:39:57;;;;;;;2.60;1.63;;;;;;;;;;5278754;28;20112;-73
2023/04/27 13:42:28;;;;;;;3.92;1.80;;;;;;;;;;5280586;28;20417;-72
2023/04/27 13:44:59;;;;;;;2.92;1.77;;;;;;;;;;5281233;28;20721;-72
2023/04/27 13:47:37;;;;;;;3.53;1.70;;;;;;;;;;5283174;28;20021;-73
2023/04/27 13:50:09;;;;;;;4.78;2.45;;;;;;;;;;5284003;28;20396;-72
2023/04/27 13:52:40;;;;;;;4.93;2.13;;;;;;;;;;5282786;28;20020;-73
2023/04/27 13:55:11;;;;;;;3.30;1.65;;;;;;;;;;5283581;28;20352;-73
2023/04/27 13:57:43;;;;;;;6.45;1.90;;;;;;;;;;5283452;28;20440;-72
2023/04/27 14:00:14;;;;;;;3.37;1.80;;;;;;;;;;5283679;28;20009;-72
2023/04/27 14:02:45;;;;;;;3.63;1.98;;;;;;;;;;5283473;28;20311;-72
2023/04/27 14:05:16;;;;;;;3.07;2.20;;;;;;;;;;5283608;28;20028;-72
2023/04/27 14:07:48;;;;;;;5.60;2.28;;;;;;;;;;5282759;28;20744;-72
2023/04/27 14:10:19;;;;;;;4.82;2.65;;;;;;;;;;5283635;28;20005;-72
2023/04/27 14:12:50;;;;;;;3.85;1.77;;;;;;;;;;5283017;28;20028;-73
2023/04/27 14:15:21;;;;;;;3.72;1.98;;;;;;;;;;5283247;28;20070;-74
2023/04/27 14:17:52;;;;;;;3.92;2.17;;;;;;;;;;5283499;28;20020;-73
2023/04/27 14:20:26;;;;;;;5.10;1.42;;;;;;;;;;5284183;28;20024;-72
2023/04/27 14:22:57;;;;;;;3.55;1.45;;;;;;;;;;5282545;28;20874;-72
2023/04/27 14:25:31;;;;;;;3.25;1.58;;;;;;;;;;5282932;28;20048;-73
2023/04/27 14:28:03;;;;;;;3.78;1.55;;;;;;;;;;5282775;28;20448;-72
2023/04/27 14:30:34;;;;;;;3.95;1.67;;;;;;;;;;5283129;28;20016;-72
2023/04/27 14:33:06;;;;;;;4.57;1.90;;;;;;;;;;5283244;28;20023;-72
2023/04/27 14:35:37;;;;;;;5.03;1.50;;;;;;;;;;5282558;28;20028;-73
2023/04/27 14:38:08;;;;;;;2.50;1.38;;;;;;;;;;5282926;28;20055;-73
2023/04/27 14:40:40;;;;;;;2.43;1.60;;;;;;;;;;5282509;28;20023;-73
2023/04/27 14:43:11;;;;;;;13.57;7.95;;;;;;;;;;5282006;28;20363;-73
2023/04/27 14:45:42;;;;;;;4.07;1.92;;;;;;;;;;5282325;28;20486;-73
2023/04/27 14:48:13;;;;;;;3.70;1.90;;;;;;;;;;5283512;28;20079;-73
2023/04/27 14:50:44;;;;;;;4.07;2.17;;;;;;;;;;5281803;28;20266;-73
2023/04/27 14:53:16;;;;;;;3.92;2.42;;;;;;;;;;5282916;28;20269;-73
2023/04/27 14:55:47;;;;;;;3.78;2.25;;;;;;;;;;5280945;28;20066;-73
2023/04/27 14:58:18;;;;;;;10.25;5.88;;;;;;;;;;5282008;28;20020;-72
2023/04/27 15:00:50;;;;;;;4.45;2.63;;;;;;;;;;5282296;28;20017;-73
2023/04/27 15:03:21;;;;;;;5.90;2.42;;;;;;;;;;5282191;28;20263;-73
2023/04/27 15:05:52;;;;;;;4.45;1.85;;;;;;;;;;5282144;28;20019;-73
2023/04/27 15:08:23;;;;;;;3.17;2.55;;;;;;;;;;5282907;28;20273;-73
2023/04/27 15:10:58;;;;;;;3.00;1.70;;;;;;;;;;5281127;28;20032;-72